Belgrade, MO (63622)

4:35 PM CST on February 09, 2016 (GMT -0600)
Parkland Lawn Care | | Change Station
CLOSE
Current Station
Personal Weather Station
Location: Caledonia, MO
Elevation: 935 ft
Nearby Weather Stations

Elev 935 ft 37.77 °N, 90.77 °W | Updated 6 seconds ago

Overcast
Overcast
25.9 °F
Feels Like 26 °F
N
2.7
Wind Variable Wind from West
Gusts 4.9 mph

Today
High -- | Low -- °F
--% Chance of Precip.
Yesterday
High -- | Low -- °F
Precip. -- in
Pressure 30.13 in
Visibility 10.0 miles
Clouds Overcast 3800 ft
Windchill 26 °F
Dew Point 5 °F
Humidity 40%
Rainfall 0.00 in
Snow Depth Not available.
7:00 AM 5:35 PM
New Moon, 2% visible
METAR KFAM 092201Z AUTO 29015G20KT 10SM OVC038 M04/M12 A3004 RMK AO2 SNE2106 SLP201 P0000 T10391117 FZRANO
Pressure 30.13 in
Visibility 10.0 miles
Clouds Overcast 3800 ft
Windchill 26 °F
Dew Point 5 °F
Humidity 40%
Rainfall 0.00 in
Snow Depth Not available.
7:00 AM 5:35 PM
New Moon, 2% visible
METAR KFAM 092201Z AUTO 29015G20KT 10SM OVC038 M04/M12 A3004 RMK AO2 SNE2106 SLP201 P0000 T10391117 FZRANO

10-Day Weather Forecast

Almanac

Astronomy

Feb. 09, 2016 Rise Set
Actual Time
Civil Twilight
Nautical Twilight
Astronomical Twilight
Moon
Length of Visible Light
Length of Day
Tomorrow will be .
, % of the Moon is Illuminated

Today's Extremes

State Highs State Lows

Community

WunderPhotos

Upload Photos

1,891,725 photos uploaded!

WunderBlog® & News

Nearby

Air Quality

  Air Quality AQ Index Pollutant
Not available.

Snow Depth

Station Depth Elevation

Earthquake Activity

City Distance Mag. Time & Date
Minimum magnitude displayed is 2.5.

Coastal Water Temperatures

Place Temperature

Stations

Nearby Weather Stations

Station Location Temp. Windchill Dew Point Humidity Wind Precip. Elev Updated Type
                   

Watches & Warnings

There are currently no watches in effect.